Relevés horaires Uccle Ukkle (Belgique)


Relevés horaires à Uccle Ukkle - Mardi 02 Août 2016
Heure UTC1 Température [°C] Vent [km/h] Hum. [%] Pres.4 [hPa] Visi. [Km] Nébu. [octa] Préc.5 [mm] Cond.
2m. Res. Ros. Dir.2 Vit. Moy. Raf.3
23:00 17.0 17.0 16.6 NNO 9.3 9.3 20.4 97 1013.4(0.1/3h) -- -- -- --
22:00 17.2 17.2 16.7 NNO 9.3 11.1 18.5 97 1013.5(0.2/3h) -- -- -- --
21:00 17.2 17.2 16.7 NNO 9.3 11.1 22.2 97 1013.6(0.5/3h) -- -- -- --
20:00 17.2 17.2 16.7 NNO 9.3 11.1 22.2 97 1013.3(0.3/3h) -- -- -- --
19:00 17.1 17.1 16.5 NNO 9.3 11.1 20.4 96 1013.3(0.2/3h) -- -- -- --
18:00 17.2 17.1 16.5 NNO 11.1 13.0 25.9 96 1013.1(-0.2/3h) -- -- 9/12h
--
17:00 17.3 17.3 16.5 NNO 9.3 11.1 24.1 95 1013(-0.4/3h) -- -- -- --
16:00 17.3 17.2 16.5 NNO 11.1 11.1 18.5 95 1013(-0.4/3h) -- -- -- --
15:00 17.2 17.1 16.3 NNO 11.1 13.0 25.9 94 1013.3(-0.1/3h) -- -- -- --
14:00 16.8 16.6 15.9 NNO 11.1 13.0 24.1 94 1013.4(0.0/3h) -- -- -- --
13:00 17.0 16.9 16.3 NNO 11.1 11.1 22.2 96 1013.5(0.3/3h) -- -- -- --
12:00 16.7 16.7 16.0 NNO 9.3 11.1 20.4 96 1013.4(0.3/3h) -- -- 6/6h
--
11:00 16.3 16.3 15.6 NNO 7.4 11.1 20.4 96 1013.4(0.0/3h) -- -- -- --
10:00 16.0 15.9 15.3 NNO 9.3 9.3 18.5 96 1013.2(-0.3/3h) -- -- -- --
09:00 15.3 15.3 14.5 NNO 7.4 11.1 18.5 95 1013.1(-0.5/3h) -- -- -- --
08:00 14.5 14.1 13.6 NNO 9.3 9.3 18.5 94 1013.5(-0.4/3h) -- -- -- --
07:00 13.9 13.4 13.1 NNO 9.3 11.1 16.7 95 1013.6(-1.1/3h) -- -- -- --
06:00 13.5 12.9 12.6 NNO 9.3 11.1 20.4 94 1013.7(-1.7/3h) -- -- 6/12h
--
05:00 13.2 12.6 12.2 NNO 9.3 11.1 16.7 94 1014(-2.4/3h) -- -- -- --
04:00 13.2 12.6 12.0 NNO 9.3 9.3 14.8 92 1014.8(-2.3/3h) -- -- -- --
03:00 13.1 12.8 11.7 NNO 7.4 7.4 11.1 91 1015.5(-2.3/3h) -- -- -- --
02:00 13.3 13.3 11.6 NNO 5.6 5.6 9.3 89 1016.4(-1.7/3h) -- -- -- --
01:00 13.7 13.7 11.4 NNO 5.6 5.6 9.3 86 1017.1(-1.4/3h) -- -- -- --
00:00 14.2 14.2 11.4 NNO 3.7 5.6 9.3 83 1017.8(-0.6/3h) -- -- 0.3/6h
--

1 Coordinated Universal Time. Actuellement il est 21:00 locale et 19:00 UTC.

2 Le vent souffle depuis la direction indiquée vers la direction oposée.

3 Les rafales max. sont disponible 40 min après l'heure du relevé.

4 Pour les stations d'altitude (plus de 600m) le géopotentiel du niveau le plus proche de la pression obligatoire est indiqué.

5 Les stations disposant d'un diffuseur peuvent indiquer "trace". Cela signifie que des précipitations ont touchés le sol mais que la quantité est inférieure à 0.1 mm.

Récapitulatif de la journée
Température [°C] Vent [km/h] Ensoleillement4 [h] Precipitations totale5 [mm] Pression [Hpa]
Min1 Max.2 Moy.3 Max. Min Max.
13.1 17.5 10.2 25.9 0 h 0 min 0 1013.0 1017.8

1 Température minimale relevée entre 18:00 UTC la veille et 18:00 UTC le jour donné.

2 Température maximale relevée entre 06:00 UTC le jour donné et 06:00 UTC le lendemain.

3 Vent moyen de la journée basé sur les relevés horaires.

4 Ensoleillement en heures relevé entre 06:00 UTC la veille et 06:00 UTC le jour donné.

5 Précipitations totales tombées entre 06:00 UTC la jour donné et 06:00 UTC le lendemain.

Graphiques horaires